sensor_id;sensor_type;location;lat;lon;timestamp;temperature;humidity
21944;DHT22;11136;48.778;9.126;2023-03-23T00:00:08;15.20;78.70
21944;DHT22;11136;48.778;9.126;2023-03-23T00:02:34;15.00;78.50
21944;DHT22;11136;48.778;9.126;2023-03-23T00:05:01;15.00;78.40
21944;DHT22;11136;48.778;9.126;2023-03-23T00:07:29;15.00;78.30
21944;DHT22;11136;48.778;9.126;2023-03-23T00:09:55;15.00;78.00
21944;DHT22;11136;48.778;9.126;2023-03-23T00:12:25;15.00;77.50
21944;DHT22;11136;48.778;9.126;2023-03-23T00:15:07;15.10;77.10
21944;DHT22;11136;48.778;9.126;2023-03-23T00:17:34;15.10;77.10
21944;DHT22;11136;48.778;9.126;2023-03-23T00:20:00;15.00;76.90
21944;DHT22;11136;48.778;9.126;2023-03-23T00:22:28;15.10;76.80
21944;DHT22;11136;48.778;9.126;2023-03-23T00:24:53;15.10;76.70
21944;DHT22;11136;48.778;9.126;2023-03-23T00:27:20;15.10;76.50
21944;DHT22;11136;48.778;9.126;2023-03-23T00:29:50;15.10;76.50
21944;DHT22;11136;48.778;9.126;2023-03-23T00:32:24;15.10;76.20
21944;DHT22;11136;48.778;9.126;2023-03-23T00:34:53;15.10;76.30
21944;DHT22;11136;48.778;9.126;2023-03-23T00:37:19;15.10;76.20
21944;DHT22;11136;48.778;9.126;2023-03-23T00:39:45;15.10;76.20
21944;DHT22;11136;48.778;9.126;2023-03-23T00:42:12;15.10;76.30
21944;DHT22;11136;48.778;9.126;2023-03-23T00:44:38;15.10;76.20
21944;DHT22;11136;48.778;9.126;2023-03-23T00:47:05;15.10;76.20
21944;DHT22;11136;48.778;9.126;2023-03-23T00:49:33;15.20;76.10
21944;DHT22;11136;48.778;9.126;2023-03-23T00:52:00;15.20;76.20
21944;DHT22;11136;48.778;9.126;2023-03-23T00:54:27;15.20;76.10
21944;DHT22;11136;48.778;9.126;2023-03-23T00:56:53;15.20;76.10
21944;DHT22;11136;48.778;9.126;2023-03-23T00:59:20;15.20;76.00
21944;DHT22;11136;48.778;9.126;2023-03-23T01:01:46;15.20;76.00
21944;DHT22;11136;48.778;9.126;2023-03-23T01:04:12;15.30;76.00
21944;DHT22;11136;48.778;9.126;2023-03-23T01:06:42;15.30;76.00
21944;DHT22;11136;48.778;9.126;2023-03-23T01:09:11;15.30;76.00
21944;DHT22;11136;48.778;9.126;2023-03-23T01:11:40;15.30;76.00
21944;DHT22;11136;48.778;9.126;2023-03-23T01:14:06;15.30;75.90
21944;DHT22;11136;48.778;9.126;2023-03-23T01:16:31;15.30;75.90
21944;DHT22;11136;48.778;9.126;2023-03-23T01:18:57;15.30;75.90
21944;DHT22;11136;48.778;9.126;2023-03-23T01:21:22;15.30;75.70
21944;DHT22;11136;48.778;9.126;2023-03-23T01:23:50;15.30;75.80
21944;DHT22;11136;48.778;9.126;2023-03-23T01:26:18;15.30;75.80
21944;DHT22;11136;48.778;9.126;2023-03-23T01:28:44;15.30;75.80
21944;DHT22;11136;48.778;9.126;2023-03-23T01:31:16;15.30;75.90
21944;DHT22;11136;48.778;9.126;2023-03-23T01:33:42;15.30;75.80
21944;DHT22;11136;48.778;9.126;2023-03-23T01:36:14;15.30;75.80
21944;DHT22;11136;48.778;9.126;2023-03-23T01:38:42;15.30;75.80
21944;DHT22;11136;48.778;9.126;2023-03-23T01:41:08;15.30;75.90
21944;DHT22;11136;48.778;9.126;2023-03-23T01:43:33;15.30;76.10
21944;DHT22;11136;48.778;9.126;2023-03-23T01:45:59;15.30;76.10
21944;DHT22;11136;48.778;9.126;2023-03-23T01:48:32;15.30;76.10
21944;DHT22;11136;48.778;9.126;2023-03-23T01:51:09;15.30;76.00
21944;DHT22;11136;48.778;9.126;2023-03-23T01:53:54;15.30;76.00
21944;DHT22;11136;48.778;9.126;2023-03-23T01:56:23;15.30;75.90
21944;DHT22;11136;48.778;9.126;2023-03-23T01:58:55;15.20;75.80
21944;DHT22;11136;48.778;9.126;2023-03-23T02:01:21;15.20;75.70
21944;DHT22;11136;48.778;9.126;2023-03-23T02:03:51;15.20;75.70
21944;DHT22;11136;48.778;9.126;2023-03-23T02:06:18;15.20;75.80
21944;DHT22;11136;48.778;9.126;2023-03-23T02:08:44;15.20;75.80
21944;DHT22;11136;48.778;9.126;2023-03-23T02:11:14;15.20;75.90
21944;DHT22;11136;48.778;9.126;2023-03-23T02:13:41;15.20;75.60
21944;DHT22;11136;48.778;9.126;2023-03-23T02:22:07;15.20;75.30
21944;DHT22;11136;48.778;9.126;2023-03-23T02:24:53;15.20;75.40
21944;DHT22;11136;48.778;9.126;2023-03-23T02:27:27;15.10;75.40
21944;DHT22;11136;48.778;9.126;2023-03-23T02:33:05;15.10;76.00
21944;DHT22;11136;48.778;9.126;2023-03-23T02:35:37;15.10;76.20
21944;DHT22;11136;48.778;9.126;2023-03-23T02:38:08;15.10;76.20
21944;DHT22;11136;48.778;9.126;2023-03-23T02:40:44;15.10;76.40
21944;DHT22;11136;48.778;9.126;2023-03-23T02:43:14;15.00;76.50
21944;DHT22;11136;48.778;9.126;2023-03-23T02:45:42;15.00;76.60
21944;DHT22;11136;48.778;9.126;2023-03-23T02:48:09;15.00;76.70
21944;DHT22;11136;48.778;9.126;2023-03-23T02:50:37;15.00;76.70
21944;DHT22;11136;48.778;9.126;2023-03-23T02:53:08;15.00;76.80
21944;DHT22;11136;48.778;9.126;2023-03-23T02:55:36;15.00;77.00
21944;DHT22;11136;48.778;9.126;2023-03-23T02:58:08;15.00;76.90
21944;DHT22;11136;48.778;9.126;2023-03-23T03:00:34;15.00;77.00
21944;DHT22;11136;48.778;9.126;2023-03-23T03:03:00;15.00;77.20
21944;DHT22;11136;48.778;9.126;2023-03-23T03:05:50;15.00;77.20
21944;DHT22;11136;48.778;9.126;2023-03-23T03:08:35;15.00;77.30
21944;DHT22;11136;48.778;9.126;2023-03-23T03:11:16;15.00;77.40
21944;DHT22;11136;48.778;9.126;2023-03-23T03:13:49;15.00;77.50
21944;DHT22;11136;48.778;9.126;2023-03-23T03:16:37;15.00;77.60
21944;DHT22;11136;48.778;9.126;2023-03-23T03:19:14;15.00;77.80
21944;DHT22;11136;48.778;9.126;2023-03-23T03:21:44;15.00;77.80
21944;DHT22;11136;48.778;9.126;2023-03-23T03:24:13;15.00;78.10
21944;DHT22;11136;48.778;9.126;2023-03-23T03:26:43;15.00;79.10
21944;DHT22;11136;48.778;9.126;2023-03-23T03:29:11;15.00;78.60
21944;DHT22;11136;48.778;9.126;2023-03-23T03:31:39;15.00;78.60
21944;DHT22;11136;48.778;9.126;2023-03-23T03:34:06;15.00;78.60
21944;DHT22;11136;48.778;9.126;2023-03-23T03:36:35;14.90;78.30
21944;DHT22;11136;48.778;9.126;2023-03-23T03:39:03;14.90;78.20
21944;DHT22;11136;48.778;9.126;2023-03-23T03:41:30;14.90;78.20
21944;DHT22;11136;48.778;9.126;2023-03-23T03:43:56;14.90;78.10
21944;DHT22;11136;48.778;9.126;2023-03-23T03:46:21;14.90;78.10
21944;DHT22;11136;48.778;9.126;2023-03-23T03:48:49;15.00;78.00
21944;DHT22;11136;48.778;9.126;2023-03-23T03:51:17;15.00;78.10
21944;DHT22;11136;48.778;9.126;2023-03-23T03:53:42;15.00;78.00
21944;DHT22;11136;48.778;9.126;2023-03-23T03:56:08;15.00;78.00
21944;DHT22;11136;48.778;9.126;2023-03-23T03:58:33;15.00;77.90
21944;DHT22;11136;48.778;9.126;2023-03-23T04:01:02;15.00;78.00
21944;DHT22;11136;48.778;9.126;2023-03-23T04:03:28;15.10;78.00
21944;DHT22;11136;48.778;9.126;2023-03-23T04:05:54;15.00;78.10
21944;DHT22;11136;48.778;9.126;2023-03-23T04:08:22;15.00;78.00
21944;DHT22;11136;48.778;9.126;2023-03-23T04:10:48;15.00;78.10
21944;DHT22;11136;48.778;9.126;2023-03-23T04:13:14;15.00;78.00
21944;DHT22;11136;48.778;9.126;2023-03-23T04:15:40;15.00;78.90
21944;DHT22;11136;48.778;9.126;2023-03-23T04:18:05;15.00;78.20
21944;DHT22;11136;48.778;9.126;2023-03-23T04:20:31;15.00;78.20
21944;DHT22;11136;48.778;9.126;2023-03-23T04:22:57;15.00;78.20
21944;DHT22;11136;48.778;9.126;2023-03-23T04:25:23;15.00;78.10
21944;DHT22;11136;48.778;9.126;2023-03-23T04:27:50;15.00;78.00
21944;DHT22;11136;48.778;9.126;2023-03-23T04:30:24;15.00;78.00
21944;DHT22;11136;48.778;9.126;2023-03-23T04:32:51;15.10;78.10
21944;DHT22;11136;48.778;9.126;2023-03-23T04:35:19;15.10;78.00
21944;DHT22;11136;48.778;9.126;2023-03-23T04:37:45;15.10;77.90
21944;DHT22;11136;48.778;9.126;2023-03-23T04:40:12;15.10;77.80
21944;DHT22;11136;48.778;9.126;2023-03-23T04:42:41;15.10;77.90
21944;DHT22;11136;48.778;9.126;2023-03-23T04:45:08;15.10;78.00
21944;DHT22;11136;48.778;9.126;2023-03-23T04:47:36;15.10;78.00
21944;DHT22;11136;48.778;9.126;2023-03-23T04:50:09;15.10;78.10
21944;DHT22;11136;48.778;9.126;2023-03-23T04:52:36;15.10;78.10
21944;DHT22;11136;48.778;9.126;2023-03-23T04:55:04;15.10;78.20
21944;DHT22;11136;48.778;9.126;2023-03-23T04:57:31;15.10;78.20
21944;DHT22;11136;48.778;9.126;2023-03-23T04:59:57;15.10;78.50
21944;DHT22;11136;48.778;9.126;2023-03-23T05:02:23;15.10;78.60
21944;DHT22;11136;48.778;9.126;2023-03-23T05:04:50;15.10;78.70
21944;DHT22;11136;48.778;9.126;2023-03-23T05:07:16;15.10;78.80
21944;DHT22;11136;48.778;9.126;2023-03-23T05:09:46;15.10;78.80
21944;DHT22;11136;48.778;9.126;2023-03-23T05:12:12;15.10;78.90
21944;DHT22;11136;48.778;9.126;2023-03-23T05:14:40;15.10;78.60
21944;DHT22;11136;48.778;9.126;2023-03-23T05:17:07;15.10;78.50
21944;DHT22;11136;48.778;9.126;2023-03-23T05:19:33;15.10;78.50
21944;DHT22;11136;48.778;9.126;2023-03-23T05:21:59;15.10;78.50
21944;DHT22;11136;48.778;9.126;2023-03-23T05:24:31;15.10;78.40
21944;DHT22;11136;48.778;9.126;2023-03-23T05:26:59;15.10;78.40
21944;DHT22;11136;48.778;9.126;2023-03-23T05:29:25;15.10;78.10
21944;DHT22;11136;48.778;9.126;2023-03-23T05:31:51;15.10;78.10
21944;DHT22;11136;48.778;9.126;2023-03-23T05:34:19;15.30;78.20
21944;DHT22;11136;48.778;9.126;2023-03-23T05:36:45;15.10;78.10
21944;DHT22;11136;48.778;9.126;2023-03-23T05:39:11;15.20;78.00
21944;DHT22;11136;48.778;9.126;2023-03-23T05:41:38;15.20;78.00
21944;DHT22;11136;48.778;9.126;2023-03-23T05:44:04;15.20;78.10
21944;DHT22;11136;48.778;9.126;2023-03-23T05:46:29;15.20;78.10
21944;DHT22;11136;48.778;9.126;2023-03-23T05:48:55;15.40;78.10
21944;DHT22;11136;48.778;9.126;2023-03-23T05:51:20;15.20;77.90
21944;DHT22;11136;48.778;9.126;2023-03-23T05:53:46;15.20;77.90
21944;DHT22;11136;48.778;9.126;2023-03-23T05:56:13;15.20;78.00
21944;DHT22;11136;48.778;9.126;2023-03-23T05:58:39;15.20;78.20
21944;DHT22;11136;48.778;9.126;2023-03-23T06:01:08;15.20;78.10
21944;DHT22;11136;48.778;9.126;2023-03-23T06:03:34;15.30;78.10
21944;DHT22;11136;48.778;9.126;2023-03-23T06:06:04;15.20;78.00
21944;DHT22;11136;48.778;9.126;2023-03-23T06:08:30;15.30;78.10
21944;DHT22;11136;48.778;9.126;2023-03-23T06:10:56;15.30;78.20
21944;DHT22;11136;48.778;9.126;2023-03-23T06:13:22;15.30;78.30
21944;DHT22;11136;48.778;9.126;2023-03-23T06:15:49;15.30;78.50
21944;DHT22;11136;48.778;9.126;2023-03-23T06:18:15;15.30;78.60
21944;DHT22;11136;48.778;9.126;2023-03-23T06:20:40;15.30;78.90
21944;DHT22;11136;48.778;9.126;2023-03-23T06:23:09;15.40;79.30
21944;DHT22;11136;48.778;9.126;2023-03-23T06:25:34;15.40;79.50
21944;DHT22;11136;48.778;9.126;2023-03-23T06:28:00;15.40;79.80
21944;DHT22;11136;48.778;9.126;2023-03-23T06:30:26;15.30;80.10
21944;DHT22;11136;48.778;9.126;2023-03-23T06:32:53;15.30;80.50
21944;DHT22;11136;48.778;9.126;2023-03-23T06:35:19;15.30;80.90
21944;DHT22;11136;48.778;9.126;2023-03-23T06:37:45;15.30;81.20
21944;DHT22;11136;48.778;9.126;2023-03-23T06:40:11;15.30;81.40
21944;DHT22;11136;48.778;9.126;2023-03-23T06:42:37;15.30;81.50
21944;DHT22;11136;48.778;9.126;2023-03-23T06:45:04;15.20;81.60
21944;DHT22;11136;48.778;9.126;2023-03-23T06:47:30;15.20;81.80
21944;DHT22;11136;48.778;9.126;2023-03-23T06:49:59;15.20;82.10
21944;DHT22;11136;48.778;9.126;2023-03-23T06:52:25;15.30;82.40
21944;DHT22;11136;48.778;9.126;2023-03-23T06:54:52;15.30;82.50
21944;DHT22;11136;48.778;9.126;2023-03-23T06:57:19;15.30;82.50
21944;DHT22;11136;48.778;9.126;2023-03-23T06:59:45;15.30;82.80
21944;DHT22;11136;48.778;9.126;2023-03-23T07:02:13;15.30;82.90
21944;DHT22;11136;48.778;9.126;2023-03-23T07:04:42;15.30;83.00
21944;DHT22;11136;48.778;9.126;2023-03-23T07:07:09;15.40;82.70
21944;DHT22;11136;48.778;9.126;2023-03-23T07:09:36;15.40;82.30
21944;DHT22;11136;48.778;9.126;2023-03-23T07:12:01;15.40;81.90
21944;DHT22;11136;48.778;9.126;2023-03-23T07:14:27;15.40;81.80
21944;DHT22;11136;48.778;9.126;2023-03-23T07:16:52;15.40;81.60
21944;DHT22;11136;48.778;9.126;2023-03-23T07:19:19;15.50;81.40
21944;DHT22;11136;48.778;9.126;2023-03-23T07:21:45;15.50;81.50
21944;DHT22;11136;48.778;9.126;2023-03-23T07:24:12;15.50;81.50
21944;DHT22;11136;48.778;9.126;2023-03-23T07:26:40;15.50;81.40
21944;DHT22;11136;48.778;9.126;2023-03-23T07:29:06;15.50;81.10
21944;DHT22;11136;48.778;9.126;2023-03-23T07:31:32;15.50;80.80
21944;DHT22;11136;48.778;9.126;2023-03-23T07:33:57;15.50;80.60
21944;DHT22;11136;48.778;9.126;2023-03-23T07:36:23;15.50;80.70
21944;DHT22;11136;48.778;9.126;2023-03-23T07:38:48;15.50;80.80
21944;DHT22;11136;48.778;9.126;2023-03-23T07:41:14;15.60;80.60
21944;DHT22;11136;48.778;9.126;2023-03-23T07:43:40;15.60;80.60
21944;DHT22;11136;48.778;9.126;2023-03-23T07:46:06;15.60;80.70
21944;DHT22;11136;48.778;9.126;2023-03-23T07:48:32;15.70;80.60
21944;DHT22;11136;48.778;9.126;2023-03-23T07:50:58;15.70;80.70
21944;DHT22;11136;48.778;9.126;2023-03-23T07:53:24;15.70;80.80
21944;DHT22;11136;48.778;9.126;2023-03-23T07:55:50;15.80;80.80
21944;DHT22;11136;48.778;9.126;2023-03-23T07:58:16;16.00;80.70
21944;DHT22;11136;48.778;9.126;2023-03-23T08:00:46;15.90;80.60
21944;DHT22;11136;48.778;9.126;2023-03-23T08:03:12;16.00;80.60
21944;DHT22;11136;48.778;9.126;2023-03-23T08:05:38;16.00;80.70
21944;DHT22;11136;48.778;9.126;2023-03-23T08:08:04;16.10;80.80
21944;DHT22;11136;48.778;9.126;2023-03-23T08:10:30;16.10;80.90
21944;DHT22;11136;48.778;9.126;2023-03-23T08:12:56;16.10;81.00
21944;DHT22;11136;48.778;9.126;2023-03-23T08:15:22;16.10;81.00
21944;DHT22;11136;48.778;9.126;2023-03-23T08:17:49;16.20;81.30
21944;DHT22;11136;48.778;9.126;2023-03-23T08:20:17;16.00;81.30
21944;DHT22;11136;48.778;9.126;2023-03-23T08:22:48;16.00;81.60
21944;DHT22;11136;48.778;9.126;2023-03-23T08:25:14;16.10;81.80
21944;DHT22;11136;48.778;9.126;2023-03-23T08:27:40;16.10;82.10
21944;DHT22;11136;48.778;9.126;2023-03-23T08:30:12;16.20;82.30
21944;DHT22;11136;48.778;9.126;2023-03-23T08:32:39;16.20;82.50
21944;DHT22;11136;48.778;9.126;2023-03-23T08:35:06;16.20;82.60
21944;DHT22;11136;48.778;9.126;2023-03-23T08:37:33;16.20;82.50
21944;DHT22;11136;48.778;9.126;2023-03-23T08:39:59;16.20;82.60
21944;DHT22;11136;48.778;9.126;2023-03-23T08:42:25;16.20;82.90
21944;DHT22;11136;48.778;9.126;2023-03-23T08:44:52;16.20;83.10
21944;DHT22;11136;48.778;9.126;2023-03-23T08:47:18;16.30;83.10
21944;DHT22;11136;48.778;9.126;2023-03-23T08:49:43;16.30;83.10
21944;DHT22;11136;48.778;9.126;2023-03-23T08:52:11;16.30;83.20
21944;DHT22;11136;48.778;9.126;2023-03-23T08:54:36;16.30;83.50
21944;DHT22;11136;48.778;9.126;2023-03-23T08:57:03;16.30;83.70
21944;DHT22;11136;48.778;9.126;2023-03-23T08:59:29;16.30;83.70
21944;DHT22;11136;48.778;9.126;2023-03-23T09:01:55;16.30;83.70
21944;DHT22;11136;48.778;9.126;2023-03-23T09:04:21;16.30;83.80
21944;DHT22;11136;48.778;9.126;2023-03-23T09:06:46;16.30;83.90
21944;DHT22;11136;48.778;9.126;2023-03-23T09:09:12;16.30;84.10
21944;DHT22;11136;48.778;9.126;2023-03-23T09:11:39;16.40;84.40
21944;DHT22;11136;48.778;9.126;2023-03-23T09:14:06;16.40;84.40
21944;DHT22;11136;48.778;9.126;2023-03-23T09:16:32;16.40;84.50
21944;DHT22;11136;48.778;9.126;2023-03-23T09:18:58;16.50;84.40
21944;DHT22;11136;48.778;9.126;2023-03-23T09:21:25;16.50;84.10
21944;DHT22;11136;48.778;9.126;2023-03-23T09:23:51;16.50;84.10
21944;DHT22;11136;48.778;9.126;2023-03-23T09:26:17;16.50;84.10
21944;DHT22;11136;48.778;9.126;2023-03-23T09:28:43;16.60;84.20
21944;DHT22;11136;48.778;9.126;2023-03-23T09:31:10;16.60;83.90
21944;DHT22;11136;48.778;9.126;2023-03-23T09:33:37;16.60;83.80
21944;DHT22;11136;48.778;9.126;2023-03-23T09:36:03;16.60;83.80
21944;DHT22;11136;48.778;9.126;2023-03-23T09:38:33;16.60;83.70
21944;DHT22;11136;48.778;9.126;2023-03-23T09:41:16;16.60;83.70
21944;DHT22;11136;48.778;9.126;2023-03-23T09:44:03;16.60;83.90
21944;DHT22;11136;48.778;9.126;2023-03-23T09:46:48;16.70;83.90
21944;DHT22;11136;48.778;9.126;2023-03-23T09:51:57;16.70;83.80
21944;DHT22;11136;48.778;9.126;2023-03-23T09:54:36;16.60;83.70
21944;DHT22;11136;48.778;9.126;2023-03-23T09:57:05;16.60;84.00
21944;DHT22;11136;48.778;9.126;2023-03-23T09:59:44;16.70;84.10
21944;DHT22;11136;48.778;9.126;2023-03-23T10:02:18;16.80;84.40
21944;DHT22;11136;48.778;9.126;2023-03-23T10:04:51;16.80;84.20
21944;DHT22;11136;48.778;9.126;2023-03-23T10:07:21;16.90;85.10
21944;DHT22;11136;48.778;9.126;2023-03-23T10:09:51;17.00;84.20
21944;DHT22;11136;48.778;9.126;2023-03-23T10:15:36;17.20;83.80
21944;DHT22;11136;48.778;9.126;2023-03-23T10:18:13;17.20;83.70
21944;DHT22;11136;48.778;9.126;2023-03-23T10:20:42;17.20;83.70
21944;DHT22;11136;48.778;9.126;2023-03-23T10:26:15;17.30;83.30
21944;DHT22;11136;48.778;9.126;2023-03-23T10:28:47;17.30;83.30
21944;DHT22;11136;48.778;9.126;2023-03-23T10:31:19;17.20;83.60
21944;DHT22;11136;48.778;9.126;2023-03-23T10:33:48;17.30;83.70
21944;DHT22;11136;48.778;9.126;2023-03-23T10:39:12;17.30;83.80
21944;DHT22;11136;48.778;9.126;2023-03-23T10:41:38;17.30;84.00
21944;DHT22;11136;48.778;9.126;2023-03-23T10:44:30;17.40;83.90
21944;DHT22;11136;48.778;9.126;2023-03-23T10:47:03;17.40;84.20
21944;DHT22;11136;48.778;9.126;2023-03-23T10:49:34;17.50;84.30
21944;DHT22;11136;48.778;9.126;2023-03-23T10:52:41;17.60;84.00
21944;DHT22;11136;48.778;9.126;2023-03-23T10:55:18;17.60;83.60
21944;DHT22;11136;48.778;9.126;2023-03-23T10:57:59;17.60;83.40
21944;DHT22;11136;48.778;9.126;2023-03-23T11:00:27;17.70;83.70
21944;DHT22;11136;48.778;9.126;2023-03-23T11:03:02;17.80;83.90
21944;DHT22;11136;48.778;9.126;2023-03-23T11:05:56;17.80;83.90
21944;DHT22;11136;48.778;9.126;2023-03-23T11:08:36;17.90;83.10
21944;DHT22;11136;48.778;9.126;2023-03-23T11:11:27;17.90;82.80
21944;DHT22;11136;48.778;9.126;2023-03-23T11:13:58;18.00;82.70
21944;DHT22;11136;48.778;9.126;2023-03-23T11:16:31;18.00;82.60
21944;DHT22;11136;48.778;9.126;2023-03-23T11:18:59;18.00;82.70
21944;DHT22;11136;48.778;9.126;2023-03-23T11:21:27;18.00;82.70
21944;DHT22;11136;48.778;9.126;2023-03-23T11:23:56;18.00;82.60
21944;DHT22;11136;48.778;9.126;2023-03-23T11:26:32;18.00;82.70
21944;DHT22;11136;48.778;9.126;2023-03-23T11:29:17;17.90;83.10
21944;DHT22;11136;48.778;9.126;2023-03-23T11:31:53;17.90;83.00
21944;DHT22;11136;48.778;9.126;2023-03-23T11:34:21;17.90;82.70
21944;DHT22;11136;48.778;9.126;2023-03-23T11:36:55;17.90;82.90
21944;DHT22;11136;48.778;9.126;2023-03-23T11:39:26;17.90;82.70
21944;DHT22;11136;48.778;9.126;2023-03-23T11:41:52;17.90;82.20
21944;DHT22;11136;48.778;9.126;2023-03-23T11:44:21;18.00;82.00
21944;DHT22;11136;48.778;9.126;2023-03-23T11:49:41;18.00;82.50
21944;DHT22;11136;48.778;9.126;2023-03-23T11:52:21;18.10;82.00
21944;DHT22;11136;48.778;9.126;2023-03-23T11:54:55;18.10;81.90
21944;DHT22;11136;48.778;9.126;2023-03-23T11:57:22;18.20;81.90
21944;DHT22;11136;48.778;9.126;2023-03-23T11:59:49;18.20;81.90
21944;DHT22;11136;48.778;9.126;2023-03-23T12:14:15;18.30;80.80
21944;DHT22;11136;48.778;9.126;2023-03-23T12:25:30;18.60;80.70
21944;DHT22;11136;48.778;9.126;2023-03-23T12:33:45;18.80;78.70
21944;DHT22;11136;48.778;9.126;2023-03-23T12:36:21;18.90;78.90
21944;DHT22;11136;48.778;9.126;2023-03-23T12:39:03;18.90;78.00
21944;DHT22;11136;48.778;9.126;2023-03-23T12:41:55;18.80;77.20
21944;DHT22;11136;48.778;9.126;2023-03-23T12:44:30;19.00;78.20
21944;DHT22;11136;48.778;9.126;2023-03-23T12:47:16;19.10;77.90
21944;DHT22;11136;48.778;9.126;2023-03-23T12:49:58;19.30;77.70
21944;DHT22;11136;48.778;9.126;2023-03-23T12:52:40;19.40;77.60
21944;DHT22;11136;48.778;9.126;2023-03-23T12:57:57;19.50;77.40
21944;DHT22;11136;48.778;9.126;2023-03-23T13:00:34;19.60;77.90
21944;DHT22;11136;48.778;9.126;2023-03-23T13:03:09;19.60;77.30
21944;DHT22;11136;48.778;9.126;2023-03-23T13:08:42;19.60;77.00
21944;DHT22;11136;48.778;9.126;2023-03-23T13:11:37;19.70;77.10
21944;DHT22;11136;48.778;9.126;2023-03-23T13:14:25;19.70;76.30
21944;DHT22;11136;48.778;9.126;2023-03-23T13:22:31;19.80;76.00
21944;DHT22;11136;48.778;9.126;2023-03-23T13:25:07;19.80;75.30
21944;DHT22;11136;48.778;9.126;2023-03-23T13:27:34;19.80;75.40
21944;DHT22;11136;48.778;9.126;2023-03-23T13:30:01;19.80;75.30
21944;DHT22;11136;48.778;9.126;2023-03-23T13:32:34;19.80;75.30
21944;DHT22;11136;48.778;9.126;2023-03-23T13:35:03;19.90;75.80
21944;DHT22;11136;48.778;9.126;2023-03-23T13:37:29;19.90;75.40
21944;DHT22;11136;48.778;9.126;2023-03-23T13:40:24;19.90;75.30
21944;DHT22;11136;48.778;9.126;2023-03-23T13:42:54;19.90;75.40
21944;DHT22;11136;48.778;9.126;2023-03-23T13:45:21;19.80;75.10
21944;DHT22;11136;48.778;9.126;2023-03-23T13:47:48;19.80;75.10
21944;DHT22;11136;48.778;9.126;2023-03-23T13:52:50;19.80;74.30
21944;DHT22;11136;48.778;9.126;2023-03-23T13:57:55;19.60;73.50
21944;DHT22;11136;48.778;9.126;2023-03-23T14:03:24;19.40;73.80
21944;DHT22;11136;48.778;9.126;2023-03-23T14:06:01;19.30;73.80
21944;DHT22;11136;48.778;9.126;2023-03-23T14:11:15;19.20;74.20
21944;DHT22;11136;48.778;9.126;2023-03-23T14:16:36;19.10;74.50
21944;DHT22;11136;48.778;9.126;2023-03-23T14:19:04;19.10;74.50
21944;DHT22;11136;48.778;9.126;2023-03-23T14:21:41;19.00;74.50
21944;DHT22;11136;48.778;9.126;2023-03-23T14:24:12;19.00;74.60
21944;DHT22;11136;48.778;9.126;2023-03-23T14:26:40;19.00;75.00
21944;DHT22;11136;48.778;9.126;2023-03-23T14:29:10;19.00;75.00
21944;DHT22;11136;48.778;9.126;2023-03-23T14:31:36;19.00;75.10
21944;DHT22;11136;48.778;9.126;2023-03-23T14:34:19;19.10;75.00
21944;DHT22;11136;48.778;9.126;2023-03-23T14:36:46;19.00;74.60
21944;DHT22;11136;48.778;9.126;2023-03-23T14:39:22;19.10;74.70
21944;DHT22;11136;48.778;9.126;2023-03-23T14:41:49;19.10;74.30
21944;DHT22;11136;48.778;9.126;2023-03-23T14:44:28;19.10;73.80
21944;DHT22;11136;48.778;9.126;2023-03-23T14:46:56;19.10;73.80
21944;DHT22;11136;48.778;9.126;2023-03-23T14:49:36;19.10;73.70
21944;DHT22;11136;48.778;9.126;2023-03-23T14:52:12;19.10;73.10
21944;DHT22;11136;48.778;9.126;2023-03-23T14:54:39;19.10;73.20
21944;DHT22;11136;48.778;9.126;2023-03-23T14:59:50;19.10;72.80
21944;DHT22;11136;48.778;9.126;2023-03-23T15:02:46;19.00;72.70
21944;DHT22;11136;48.778;9.126;2023-03-23T15:05:19;19.00;72.60
21944;DHT22;11136;48.778;9.126;2023-03-23T15:07:53;19.00;72.90
21944;DHT22;11136;48.778;9.126;2023-03-23T15:10:22;19.10;73.10
21944;DHT22;11136;48.778;9.126;2023-03-23T15:12:49;19.00;72.80
21944;DHT22;11136;48.778;9.126;2023-03-23T15:15:26;19.00;72.70
21944;DHT22;11136;48.778;9.126;2023-03-23T15:17:53;19.10;72.70
21944;DHT22;11136;48.778;9.126;2023-03-23T15:20:24;19.10;72.30
21944;DHT22;11136;48.778;9.126;2023-03-23T15:22:51;19.00;72.10
21944;DHT22;11136;48.778;9.126;2023-03-23T15:28:06;19.10;72.30
21944;DHT22;11136;48.778;9.126;2023-03-23T15:30:35;19.00;71.50
21944;DHT22;11136;48.778;9.126;2023-03-23T15:33:10;19.00;71.20
21944;DHT22;11136;48.778;9.126;2023-03-23T15:35:46;19.00;70.80
21944;DHT22;11136;48.778;9.126;2023-03-23T15:38:21;18.90;70.60
21944;DHT22;11136;48.778;9.126;2023-03-23T15:40:53;18.90;70.60
21944;DHT22;11136;48.778;9.126;2023-03-23T15:43:22;18.80;70.70
21944;DHT22;11136;48.778;9.126;2023-03-23T15:49:17;18.70;70.50
21944;DHT22;11136;48.778;9.126;2023-03-23T15:51:22;18.60;70.60
21944;DHT22;11136;48.778;9.126;2023-03-23T15:53:50;18.60;70.60
21944;DHT22;11136;48.778;9.126;2023-03-23T15:56:16;18.50;70.60
21944;DHT22;11136;48.778;9.126;2023-03-23T15:58:42;18.50;70.80
21944;DHT22;11136;48.778;9.126;2023-03-23T16:03:50;18.40;70.90
21944;DHT22;11136;48.778;9.126;2023-03-23T16:06:18;18.40;71.20
21944;DHT22;11136;48.778;9.126;2023-03-23T16:08:44;18.40;71.30
21944;DHT22;11136;48.778;9.126;2023-03-23T16:11:12;18.30;71.20
21944;DHT22;11136;48.778;9.126;2023-03-23T16:13:38;18.30;71.30
21944;DHT22;11136;48.778;9.126;2023-03-23T16:16:05;18.30;71.50
21944;DHT22;11136;48.778;9.126;2023-03-23T16:18:32;18.30;71.50
21944;DHT22;11136;48.778;9.126;2023-03-23T16:20:58;18.20;71.60
21944;DHT22;11136;48.778;9.126;2023-03-23T16:23:25;18.30;71.70
21944;DHT22;11136;48.778;9.126;2023-03-23T16:25:51;18.20;71.70
21944;DHT22;11136;48.778;9.126;2023-03-23T16:28:17;18.20;71.70
21944;DHT22;11136;48.778;9.126;2023-03-23T16:30:45;18.20;71.80
21944;DHT22;11136;48.778;9.126;2023-03-23T16:33:11;18.10;71.90
21944;DHT22;11136;48.778;9.126;2023-03-23T16:35:37;18.10;71.80
21944;DHT22;11136;48.778;9.126;2023-03-23T16:38:04;18.10;71.80
21944;DHT22;11136;48.778;9.126;2023-03-23T16:40:30;18.10;71.90
21944;DHT22;11136;48.778;9.126;2023-03-23T16:42:56;18.00;72.00
21944;DHT22;11136;48.778;9.126;2023-03-23T16:45:21;18.00;72.20
21944;DHT22;11136;48.778;9.126;2023-03-23T16:47:48;18.00;72.40
21944;DHT22;11136;48.778;9.126;2023-03-23T16:50:19;18.00;72.60
21944;DHT22;11136;48.778;9.126;2023-03-23T16:52:46;18.00;72.70
21944;DHT22;11136;48.778;9.126;2023-03-23T16:55:13;18.00;72.90
21944;DHT22;11136;48.778;9.126;2023-03-23T16:57:39;17.90;73.00
21944;DHT22;11136;48.778;9.126;2023-03-23T17:00:11;17.90;73.10
21944;DHT22;11136;48.778;9.126;2023-03-23T17:02:40;17.90;73.40
21944;DHT22;11136;48.778;9.126;2023-03-23T17:05:05;18.00;73.40
21944;DHT22;11136;48.778;9.126;2023-03-23T17:07:31;17.90;73.30
21944;DHT22;11136;48.778;9.126;2023-03-23T17:09:58;17.90;73.40